UAE372 OMDB-VTBS
Flight info
| Callsign | UAE372 |
|---|---|
| Flight time | N/A |
| Altitude | 37000 |
| Route | IVURO M677 LALDO B505 NADSO B524 ALPOR M504 TELEM A791 EKIGA/N0482F390 A791 BPL T1 BBS N895 BETNO P646 TARED WILLA1C |
| Aircraft | A388/J-SADE2E3FGHIJ3J4J5M1RWXY/LB1D1 |
Departure
| Time | N/A |
|---|---|
| Airport | Dubai International Airport (OMDB) |
Arrival
| Time | 2026-05-03 20:57 |
|---|---|
| Airport | Suvarnabhumi Airport (VTBS) |
| Time | Latitude | Longitude | Altitude | Speed | Heading |
|---|---|---|---|---|---|
| 2026-05-03 20:15 | 15.51398 | 97.38826 | 38882 ft | 508 kts | 119° |
| 2026-05-03 20:15 | 15.48149 | 97.45274 | 38878 ft | 508 kts | 119° |
| 2026-05-03 20:16 | 15.44856 | 97.51802 | 38876 ft | 508 kts | 119° |
| 2026-05-03 20:16 | 15.41580 | 97.58290 | 38865 ft | 507 kts | 119° |
| 2026-05-03 20:17 | 15.38326 | 97.64731 | 38865 ft | 508 kts | 119° |
| 2026-05-03 20:17 | 15.35049 | 97.71210 | 38872 ft | 508 kts | 119° |
| 2026-05-03 20:18 | 15.31765 | 97.77697 | 38887 ft | 509 kts | 119° |
| 2026-05-03 20:18 | 15.28470 | 97.84199 | 38894 ft | 510 kts | 119° |
| 2026-05-03 20:19 | 15.25174 | 97.90700 | 38896 ft | 510 kts | 119° |
| 2026-05-03 20:19 | 15.21877 | 97.97195 | 38894 ft | 510 kts | 119° |
| 2026-05-03 20:20 | 15.18573 | 98.03699 | 38895 ft | 510 kts | 119° |
| 2026-05-03 20:20 | 15.15278 | 98.10179 | 38899 ft | 510 kts | 119° |
| 2026-05-03 20:21 | 15.11973 | 98.16678 | 38900 ft | 510 kts | 119° |
| 2026-05-03 20:21 | 15.08673 | 98.23177 | 38902 ft | 509 kts | 119° |
| 2026-05-03 20:22 | 15.05434 | 98.29697 | 38909 ft | 509 kts | 118° |
| 2026-05-03 20:22 | 15.02206 | 98.36210 | 38901 ft | 509 kts | 118° |
| 2026-05-03 20:23 | 14.98966 | 98.42721 | 38916 ft | 509 kts | 118° |
| 2026-05-03 20:23 | 14.95725 | 98.49223 | 38919 ft | 509 kts | 118° |
| 2026-05-03 20:24 | 14.92479 | 98.55732 | 38926 ft | 509 kts | 118° |
| 2026-05-03 20:24 | 14.89231 | 98.62237 | 38920 ft | 509 kts | 118° |
| 2026-05-03 20:25 | 14.85977 | 98.68749 | 38919 ft | 510 kts | 118° |
| 2026-05-03 20:25 | 14.82723 | 98.75256 | 38917 ft | 510 kts | 118° |
| 2026-05-03 20:26 | 14.79462 | 98.81769 | 38924 ft | 510 kts | 118° |
| 2026-05-03 20:26 | 14.76203 | 98.88274 | 38906 ft | 510 kts | 118° |
| 2026-05-03 20:27 | 14.72945 | 98.94769 | 38706 ft | 506 kts | 118° |
| 2026-05-03 20:27 | 14.71331 | 98.97987 | 38459 ft | 504 kts | 118° |
| 2026-05-03 20:27 | 14.69718 | 99.01200 | 38199 ft | 504 kts | 118° |
| 2026-05-03 20:27 | 14.68108 | 99.04416 | 37779 ft | 503 kts | 118° |
| 2026-05-03 20:28 | 14.66493 | 99.07637 | 36971 ft | 506 kts | 119° |
| 2026-05-03 20:28 | 14.64867 | 99.10871 | 35940 ft | 512 kts | 119° |
| 2026-05-03 20:28 | 14.63205 | 99.14172 | 34795 ft | 521 kts | 119° |
| 2026-05-03 20:28 | 14.61523 | 99.17512 | 33577 ft | 529 kts | 119° |
| 2026-05-03 20:29 | 14.59813 | 99.20904 | 32474 ft | 533 kts | 119° |
| 2026-05-03 20:29 | 14.58111 | 99.24281 | 31758 ft | 527 kts | 119° |
| 2026-05-03 20:29 | 14.56433 | 99.27612 | 31101 ft | 520 kts | 119° |
| 2026-05-03 20:29 | 14.54769 | 99.30912 | 30426 ft | 515 kts | 119° |
| 2026-05-03 20:30 | 14.53125 | 99.34171 | 29727 ft | 510 kts | 119° |
| 2026-05-03 20:30 | 14.51498 | 99.37396 | 29046 ft | 503 kts | 119° |
| 2026-05-03 20:30 | 14.49912 | 99.40538 | 28342 ft | 497 kts | 119° |
| 2026-05-03 20:30 | 14.48324 | 99.43682 | 27645 ft | 491 kts | 119° |
| 2026-05-03 20:31 | 14.46755 | 99.46787 | 26978 ft | 485 kts | 119° |
| 2026-05-03 20:31 | 14.45288 | 99.49903 | 26289 ft | 481 kts | 113° |
| 2026-05-03 20:31 | 14.44245 | 99.53151 | 25659 ft | 477 kts | 105° |
| 2026-05-03 20:31 | 14.43642 | 99.56510 | 25028 ft | 473 kts | 97° |
| 2026-05-03 20:32 | 14.43415 | 99.59874 | 24390 ft | 468 kts | 94° |
| 2026-05-03 20:32 | 14.43219 | 99.63198 | 23775 ft | 462 kts | 94° |
| 2026-05-03 20:32 | 14.43012 | 99.66487 | 23350 ft | 453 kts | 94° |
| 2026-05-03 20:32 | 14.42809 | 99.69667 | 23156 ft | 436 kts | 94° |
| 2026-05-03 20:33 | 14.42614 | 99.72735 | 22988 ft | 421 kts | 94° |
| 2026-05-03 20:33 | 14.42422 | 99.75727 | 22406 ft | 418 kts | 94° |
| 2026-05-03 20:33 | 14.42232 | 99.78712 | 21812 ft | 415 kts | 94° |
| 2026-05-03 20:33 | 14.42044 | 99.81666 | 21279 ft | 411 kts | 94° |
| 2026-05-03 20:34 | 14.41857 | 99.84588 | 20784 ft | 406 kts | 94° |
| 2026-05-03 20:34 | 14.41673 | 99.87469 | 20294 ft | 401 kts | 94° |
| 2026-05-03 20:34 | 14.41489 | 99.90339 | 19783 ft | 398 kts | 95° |
| 2026-05-03 20:34 | 14.41308 | 99.93172 | 19289 ft | 394 kts | 95° |
| 2026-05-03 20:35 | 14.41127 | 99.95977 | 18796 ft | 390 kts | 95° |
| 2026-05-03 20:35 | 14.40949 | 99.98754 | 18335 ft | 386 kts | 95° |
| 2026-05-03 20:35 | 14.40774 | 100.01473 | 18167 ft | 373 kts | 95° |
| 2026-05-03 20:35 | 14.40606 | 100.04097 | 18037 ft | 360 kts | 95° |
| 2026-05-03 20:36 | 14.40323 | 100.06606 | 17912 ft | 346 kts | 102° |
| 2026-05-03 20:36 | 14.39749 | 100.08985 | 17554 ft | 341 kts | 106° |
| 2026-05-03 20:36 | 14.39145 | 100.11346 | 17110 ft | 340 kts | 105° |
| 2026-05-03 20:36 | 14.38554 | 100.13700 | 16699 ft | 338 kts | 105° |
| 2026-05-03 20:37 | 14.37970 | 100.16043 | 16296 ft | 336 kts | 105° |
| 2026-05-03 20:37 | 14.37389 | 100.18372 | 15891 ft | 334 kts | 105° |
| 2026-05-03 20:37 | 14.36812 | 100.20685 | 15502 ft | 332 kts | 105° |
| 2026-05-03 20:37 | 14.36236 | 100.22986 | 15099 ft | 331 kts | 105° |
| 2026-05-03 20:38 | 14.35663 | 100.25276 | 14711 ft | 329 kts | 105° |
| 2026-05-03 20:38 | 14.35097 | 100.27543 | 14491 ft | 322 kts | 105° |
| 2026-05-03 20:38 | 14.34548 | 100.29736 | 14412 ft | 310 kts | 105° |
| 2026-05-03 20:38 | 14.34020 | 100.31849 | 14321 ft | 299 kts | 105° |
| 2026-05-03 20:39 | 14.33510 | 100.33888 | 14233 ft | 288 kts | 105° |
| 2026-05-03 20:39 | 14.33013 | 100.35873 | 13954 ft | 287 kts | 105° |
| 2026-05-03 20:39 | 14.32513 | 100.37862 | 13634 ft | 286 kts | 105° |
| 2026-05-03 20:39 | 14.32016 | 100.39845 | 13316 ft | 285 kts | 105° |
| 2026-05-03 20:40 | 14.31522 | 100.41814 | 12991 ft | 283 kts | 105° |
| 2026-05-03 20:40 | 14.31029 | 100.43773 | 12698 ft | 281 kts | 105° |
| 2026-05-03 20:40 | 14.30541 | 100.45716 | 12378 ft | 279 kts | 105° |
| 2026-05-03 20:40 | 14.30056 | 100.47643 | 12073 ft | 277 kts | 105° |
| 2026-05-03 20:41 | 14.29574 | 100.49563 | 11756 ft | 275 kts | 105° |
| 2026-05-03 20:41 | 14.29102 | 100.51441 | 11452 ft | 274 kts | 105° |
| 2026-05-03 20:41 | 14.28625 | 100.53334 | 11153 ft | 272 kts | 105° |
| 2026-05-03 20:41 | 14.28154 | 100.55207 | 11018 ft | 267 kts | 105° |
| 2026-05-03 20:42 | 14.27686 | 100.57075 | 11022 ft | 281 kts | 105° |
| 2026-05-03 20:42 | 14.27169 | 100.59144 | 11027 ft | 314 kts | 105° |
| 2026-05-03 20:42 | 14.26596 | 100.61422 | 11027 ft | 339 kts | 105° |
| 2026-05-03 20:42 | 14.25801 | 100.63743 | 10975 ft | 348 kts | 120° |
| 2026-05-03 20:43 | 14.24286 | 100.65658 | 10946 ft | 345 kts | 140° |
| 2026-05-03 20:43 | 14.22244 | 100.66855 | 10868 ft | 334 kts | 162° |
| 2026-05-03 20:43 | 14.20004 | 100.67175 | 10767 ft | 321 kts | 184° |
| 2026-05-03 20:43 | 14.17891 | 100.66607 | 10667 ft | 308 kts | 204° |
| 2026-05-03 20:44 | 14.16026 | 100.65592 | 10466 ft | 300 kts | 208° |
| 2026-05-03 20:44 | 14.14162 | 100.64642 | 10236 ft | 297 kts | 203° |
| 2026-05-03 20:44 | 14.12235 | 100.63869 | 10022 ft | 297 kts | 198° |
| 2026-05-03 20:44 | 14.10275 | 100.63238 | 9868 ft | 293 kts | 195° |
| 2026-05-03 20:45 | 14.08326 | 100.62691 | 9818 ft | 287 kts | 194° |
| 2026-05-03 20:45 | 14.06431 | 100.62189 | 9736 ft | 275 kts | 193° |
| 2026-05-03 20:45 | 14.04608 | 100.61715 | 9620 ft | 264 kts | 193° |
| 2026-05-03 20:45 | 14.02841 | 100.61257 | 9438 ft | 261 kts | 193° |
| 2026-05-03 20:46 | 14.01058 | 100.61141 | 9256 ft | 257 kts | 167° |
| 2026-05-03 20:46 | 13.99454 | 100.61906 | 9091 ft | 257 kts | 139° |
| 2026-05-03 20:46 | 13.98414 | 100.63350 | 8861 ft | 256 kts | 111° |
| 2026-05-03 20:46 | 13.97941 | 100.65147 | 8541 ft | 258 kts | 103° |
| 2026-05-03 20:47 | 13.97550 | 100.66962 | 8167 ft | 260 kts | 103° |
| 2026-05-03 20:47 | 13.97148 | 100.68775 | 7832 ft | 260 kts | 100° |
| 2026-05-03 20:47 | 13.97103 | 100.69999 | 7615 ft | 260 kts | 82° |
| 2026-05-03 20:47 | 13.98158 | 100.72190 | 7169 ft | 260 kts | 44° |
| 2026-05-03 20:48 | 13.99709 | 100.73123 | 6843 ft | 260 kts | 18° |
| 2026-05-03 20:48 | 14.00863 | 100.73427 | 6644 ft | 258 kts | 12° |
| 2026-05-03 20:48 | 14.02542 | 100.74026 | 6289 ft | 257 kts | 33° |
| 2026-05-03 20:48 | 14.03778 | 100.75337 | 5934 ft | 257 kts | 61° |
| 2026-05-03 20:49 | 14.04253 | 100.77080 | 5688 ft | 251 kts | 90° |
| 2026-05-03 20:49 | 14.03916 | 100.78808 | 5445 ft | 247 kts | 111° |
| 2026-05-03 20:49 | 14.03225 | 100.80429 | 5145 ft | 247 kts | 115° |
| 2026-05-03 20:49 | 14.02532 | 100.82041 | 4849 ft | 245 kts | 118° |
| 2026-05-03 20:50 | 14.01460 | 100.83385 | 4327 ft | 244 kts | 147° |
| 2026-05-03 20:50 | 13.99915 | 100.84009 | 3849 ft | 238 kts | 175° |
| 2026-05-03 20:50 | 13.98295 | 100.83794 | 3526 ft | 236 kts | 196° |
| 2026-05-03 20:50 | 13.96697 | 100.83333 | 3156 ft | 240 kts | 195° |
| 2026-05-03 20:51 | 13.95113 | 100.82922 | 3039 ft | 231 kts | 194° |
| 2026-05-03 20:51 | 13.93547 | 100.82522 | 2729 ft | 232 kts | 194° |
| 2026-05-03 20:51 | 13.92008 | 100.82126 | 2640 ft | 223 kts | 194° |
| 2026-05-03 20:51 | 13.90547 | 100.81747 | 2581 ft | 210 kts | 194° |
| 2026-05-03 20:52 | 13.89166 | 100.81388 | 2507 ft | 197 kts | 194° |
| 2026-05-03 20:52 | 13.87916 | 100.81067 | 2505 ft | 179 kts | 194° |
| 2026-05-03 20:52 | 13.86712 | 100.80751 | 2508 ft | 178 kts | 194° |
| 2026-05-03 20:52 | 13.85514 | 100.80434 | 2507 ft | 178 kts | 195° |
| 2026-05-03 20:53 | 13.84310 | 100.80116 | 2508 ft | 179 kts | 195° |
| 2026-05-03 20:53 | 13.83110 | 100.79798 | 2502 ft | 178 kts | 195° |
| 2026-05-03 20:53 | 13.81910 | 100.79481 | 2467 ft | 178 kts | 195° |
| 2026-05-03 20:53 | 13.80708 | 100.79162 | 2251 ft | 178 kts | 195° |
| 2026-05-03 20:54 | 13.79522 | 100.78849 | 2032 ft | 171 kts | 195° |
| 2026-05-03 20:54 | 13.77329 | 100.78271 | 1612 ft | 157 kts | 194° |
| 2026-05-03 20:54 | 13.76316 | 100.78002 | 1398 ft | 144 kts | 194° |
| 2026-05-03 20:55 | 13.75377 | 100.77756 | 1225 ft | 137 kts | 194° |
| 2026-05-03 20:55 | 13.74459 | 100.77514 | 1043 ft | 136 kts | 194° |
| 2026-05-03 20:55 | 13.73541 | 100.77272 | 882 ft | 137 kts | 194° |
| 2026-05-03 20:55 | 13.72616 | 100.77028 | 719 ft | 138 kts | 195° |
| 2026-05-03 20:56 | 13.71686 | 100.76780 | 554 ft | 137 kts | 194° |
| 2026-05-03 20:56 | 13.70773 | 100.76539 | 374 ft | 135 kts | 195° |
| 2026-05-03 20:56 | 13.69863 | 100.76298 | 198 ft | 135 kts | 195° |
| 2026-05-03 20:56 | 13.68950 | 100.76057 | 29 ft | 134 kts | 195° |
| 2026-05-03 20:57 | 13.68177 | 100.75842 | 19 ft | 89 kts | 194° |
| 2026-05-03 20:57 | 13.67760 | 100.75734 | 16 ft | 47 kts | 194° |
| 2026-05-03 20:57 | 13.67425 | 100.75645 | 21 ft | 35 kts | 194° |
| 2026-05-03 20:57 | 13.67242 | 100.75576 | 20 ft | 24 kts | 211° |
| 2026-05-03 20:58 | 13.67135 | 100.75489 | 22 ft | 13 kts | 223° |
| 2026-05-03 20:58 | 13.67092 | 100.75431 | 22 ft | 8 kts | 268° |
| 2026-05-03 20:58 | 13.67121 | 100.75388 | 18 ft | 9 kts | 339° |
| 2026-05-03 20:58 | 13.67188 | 100.75390 | 21 ft | 7 kts | 15° |
| 2026-05-03 20:59 | 13.67260 | 100.75411 | 19 ft | 14 kts | 16° |
| 2026-05-03 20:59 | 13.67373 | 100.75441 | 21 ft | 19 kts | 13° |
| 2026-05-03 20:59 | 13.67515 | 100.75476 | 20 ft | 23 kts | 14° |
| 2026-05-03 20:59 | 13.67643 | 100.75512 | 21 ft | 17 kts | 15° |
| 2026-05-03 21:00 | 13.67754 | 100.75504 | 19 ft | 17 kts | 304° |
| 2026-05-03 21:00 | 13.67808 | 100.75463 | 20 ft | 14 kts | 354° |
| 2026-05-03 21:00 | 13.67939 | 100.75489 | 21 ft | 17 kts | 14° |
| 2026-05-03 21:00 | 13.68070 | 100.75523 | 19 ft | 22 kts | 14° |
| 2026-05-03 21:01 | 13.68204 | 100.75553 | 20 ft | 13 kts | 352° |
| 2026-05-03 21:01 | 13.68255 | 100.75493 | 20 ft | 10 kts | 288° |
| 2026-05-03 21:01 | 13.68279 | 100.75407 | 19 ft | 14 kts | 283° |
| 2026-05-03 21:01 | 13.68306 | 100.75295 | 19 ft | 18 kts | 283° |
| 2026-05-03 21:02 | 13.68338 | 100.75165 | 18 ft | 20 kts | 285° |
| 2026-05-03 21:02 | 13.68375 | 100.75020 | 20 ft | 22 kts | 283° |
| 2026-05-03 21:02 | 13.68410 | 100.74879 | 18 ft | 8 kts | 284° |
| 2026-05-03 21:02 | 13.68420 | 100.74830 | 19 ft | 2 kts | 255° |
| 2026-05-03 21:03 | 13.68411 | 100.74815 | 20 ft | 2 kts | 214° |
| 2026-05-03 21:03 | 13.68396 | 100.74810 | 20 ft | 4 kts | 195° |
| 2026-05-03 21:03 | 13.68366 | 100.74802 | 18 ft | 1 kts | 193° |
| 2026-05-03 21:03 | 13.68346 | 100.74797 | 19 ft | 1 kts | 193° |
| 2026-05-03 21:04 | 13.68338 | 100.74795 | 20 ft | 2 kts | 194° |
| 2026-05-03 21:04 | 13.68337 | 100.74795 | 20 ft | 0 kts | 194° |